sensor_id;sensor_type;location;lat;lon;timestamp;pressure;altitude;pressure_sealevel;temperature;humidity
76054;BME280;64752;48.870;9.082;2022-12-10T00:01:30;96957.44;;;0.79;90.92
76054;BME280;64752;48.870;9.082;2022-12-10T00:03:56;96960.81;;;0.80;91.18
76054;BME280;64752;48.870;9.082;2022-12-10T00:06:24;96955.75;;;0.78;90.89
76054;BME280;64752;48.870;9.082;2022-12-10T00:08:51;96954.09;;;0.74;91.07
76054;BME280;64752;48.870;9.082;2022-12-10T00:11:18;96959.06;;;0.83;90.61
76054;BME280;64752;48.870;9.082;2022-12-10T00:13:45;96955.75;;;0.76;91.08
76054;BME280;64752;48.870;9.082;2022-12-10T00:16:13;96957.47;;;0.76;90.79
76054;BME280;64752;48.870;9.082;2022-12-10T00:18:38;96954.84;;;0.81;90.42
76054;BME280;64752;48.870;9.082;2022-12-10T00:21:05;96955.88;;;0.67;90.78
76054;BME280;64752;48.870;9.082;2022-12-10T00:23:31;96963.59;;;0.63;91.13
76054;BME280;64752;48.870;9.082;2022-12-10T00:26:04;96965.25;;;0.67;91.26
76054;BME280;64752;48.870;9.082;2022-12-10T00:28:30;96955.81;;;0.72;91.14
76054;BME280;64752;48.870;9.082;2022-12-10T00:31:08;96955.88;;;0.67;91.13
76054;BME280;64752;48.870;9.082;2022-12-10T00:33:34;96964.41;;;0.65;91.07
76054;BME280;64752;48.870;9.082;2022-12-10T00:36:06;96960.94;;;0.70;91.34
76054;BME280;64752;48.870;9.082;2022-12-10T00:38:32;96953.28;;;0.70;90.93
76054;BME280;64752;48.870;9.082;2022-12-10T00:40:57;96953.34;;;0.64;91.15
76054;BME280;64752;48.870;9.082;2022-12-10T00:43:22;96956.78;;;0.63;91.09
76054;BME280;64752;48.870;9.082;2022-12-10T00:45:48;96948.22;;;0.67;90.85
76054;BME280;64752;48.870;9.082;2022-12-10T00:48:13;96954.09;;;0.75;91.01
76054;BME280;64752;48.870;9.082;2022-12-10T00:50:38;96949.09;;;0.66;91.12
76054;BME280;64752;48.870;9.082;2022-12-10T00:53:04;96949.94;;;0.67;90.90
76054;BME280;64752;48.870;9.082;2022-12-10T00:55:29;96955.88;;;0.66;90.88
76054;BME280;64752;48.870;9.082;2022-12-10T00:57:54;96959.34;;;0.63;91.04
76054;BME280;64752;48.870;9.082;2022-12-10T01:00:20;96964.47;;;0.60;91.00
76054;BME280;64752;48.870;9.082;2022-12-10T01:02:45;96967.78;;;0.67;90.28
76054;BME280;64752;48.870;9.082;2022-12-10T01:05:10;96977.28;;;0.57;90.96
76054;BME280;64752;48.870;9.082;2022-12-10T01:07:36;96974.66;;;0.62;91.51
76054;BME280;64752;48.870;9.082;2022-12-10T01:10:01;96986.41;;;0.73;90.51
76054;BME280;64752;48.870;9.082;2022-12-10T01:12:27;96984.06;;;0.56;91.40
76054;BME280;64752;48.870;9.082;2022-12-10T01:14:52;96976.50;;;0.50;91.71
76054;BME280;64752;48.870;9.082;2022-12-10T01:17:18;96989.22;;;0.52;91.84
76054;BME280;64752;48.870;9.082;2022-12-10T01:19:43;96989.22;;;0.52;91.91
76054;BME280;64752;48.870;9.082;2022-12-10T01:22:08;96984.78;;;0.68;90.56
76054;BME280;64752;48.870;9.082;2022-12-10T01:24:34;96992.34;;;0.75;90.67
76054;BME280;64752;48.870;9.082;2022-12-10T01:27:00;96992.56;;;0.57;91.16
76054;BME280;64752;48.870;9.082;2022-12-10T01:29:25;96992.59;;;0.55;91.33
76054;BME280;64752;48.870;9.082;2022-12-10T01:31:53;97002.84;;;0.51;91.67
76054;BME280;64752;48.870;9.082;2022-12-10T01:34:19;97005.47;;;0.45;91.36
76054;BME280;64752;48.870;9.082;2022-12-10T01:36:48;97002.91;;;0.43;92.09
76054;BME280;64752;48.870;9.082;2022-12-10T01:39:15;97002.13;;;0.40;92.04
76054;BME280;64752;48.870;9.082;2022-12-10T01:41:55;97013.97;;;0.44;92.19
76054;BME280;64752;48.870;9.082;2022-12-10T01:46:49;97016.66;;;0.31;92.98
76054;BME280;64752;48.870;9.082;2022-12-10T01:51:48;97024.28;;;0.33;92.43
76054;BME280;64752;48.870;9.082;2022-12-10T01:54:24;97018.22;;;0.45;92.28
76054;BME280;64752;48.870;9.082;2022-12-10T01:56:56;97020.91;;;0.31;92.66
76054;BME280;64752;48.870;9.082;2022-12-10T01:59:23;97027.72;;;0.30;92.67
76054;BME280;64752;48.870;9.082;2022-12-10T02:15:23;97014.16;;;0.27;92.80
76054;BME280;64752;48.870;9.082;2022-12-10T02:17:58;97009.13;;;0.22;92.96
76054;BME280;64752;48.870;9.082;2022-12-10T02:20:37;97005.72;;;0.20;92.78
76054;BME280;64752;48.870;9.082;2022-12-10T02:25:43;97010.94;;;0.09;92.96
76054;BME280;64752;48.870;9.082;2022-12-10T02:30:43;97005.84;;;0.08;92.83
76054;BME280;64752;48.870;9.082;2022-12-10T02:33:09;97000.69;;;0.12;92.78
76054;BME280;64752;48.870;9.082;2022-12-10T02:35:38;97005.03;;;0.03;93.08
76054;BME280;64752;48.870;9.082;2022-12-10T02:38:11;96994.94;;;-0.08;93.24
76054;BME280;64752;48.870;9.082;2022-12-10T02:40:39;97001.78;;;-0.15;93.51
76054;BME280;64752;48.870;9.082;2022-12-10T02:43:08;96994.22;;;-0.23;93.59
76054;BME280;64752;48.870;9.082;2022-12-10T02:45:35;96987.47;;;-0.25;94.13
76054;BME280;64752;48.870;9.082;2022-12-10T02:48:01;96991.75;;;-0.29;94.27
76054;BME280;64752;48.870;9.082;2022-12-10T02:50:28;96993.38;;;-0.23;94.53
76054;BME280;64752;48.870;9.082;2022-12-10T02:52:56;96982.28;;;-0.13;94.09
76054;BME280;64752;48.870;9.082;2022-12-10T02:55:21;96987.41;;;-0.19;93.93
76054;BME280;64752;48.870;9.082;2022-12-10T02:58:03;96974.75;;;-0.31;94.28
76054;BME280;64752;48.870;9.082;2022-12-10T03:00:37;96976.56;;;-0.40;94.16
76054;BME280;64752;48.870;9.082;2022-12-10T03:06:05;96959.69;;;-0.51;94.66
76054;BME280;64752;48.870;9.082;2022-12-10T03:09:04;96955.53;;;-0.63;94.69
76054;BME280;64752;48.870;9.082;2022-12-10T03:11:31;96964.94;;;-0.76;95.14
76054;BME280;64752;48.870;9.082;2022-12-10T03:14:03;96967.63;;;-0.94;95.11
76054;BME280;64752;48.870;9.082;2022-12-10T03:16:37;96972.75;;;-0.99;95.45
76054;BME280;64752;48.870;9.082;2022-12-10T03:19:08;96983.78;;;-1.03;95.69
76054;BME280;64752;48.870;9.082;2022-12-10T03:21:37;96991.44;;;-1.05;96.52
76054;BME280;64752;48.870;9.082;2022-12-10T03:24:04;96986.25;;;-0.91;96.77
76054;BME280;64752;48.870;9.082;2022-12-10T03:26:31;96993.00;;;-0.82;96.86
76054;BME280;64752;48.870;9.082;2022-12-10T03:29:01;96993.78;;;-0.74;97.11
76054;BME280;64752;48.870;9.082;2022-12-10T03:31:29;96986.13;;;-0.68;97.06
76054;BME280;64752;48.870;9.082;2022-12-10T03:33:55;96981.88;;;-0.69;97.01
76054;BME280;64752;48.870;9.082;2022-12-10T03:36:21;96970.88;;;-0.74;96.71
76054;BME280;64752;48.870;9.082;2022-12-10T03:38:47;96967.47;;;-0.73;97.04
76054;BME280;64752;48.870;9.082;2022-12-10T03:41:14;96954.69;;;-0.62;96.66
76054;BME280;64752;48.870;9.082;2022-12-10T03:43:59;96957.25;;;-0.67;96.22
76054;BME280;64752;48.870;9.082;2022-12-10T03:46:26;96962.41;;;-0.79;96.59
76054;BME280;64752;48.870;9.082;2022-12-10T03:48:53;96964.16;;;-0.84;96.43
76054;BME280;64752;48.870;9.082;2022-12-10T03:51:19;96974.41;;;-0.92;96.70
76054;BME280;64752;48.870;9.082;2022-12-10T03:53:45;96982.03;;;-0.93;96.98
76054;BME280;64752;48.870;9.082;2022-12-10T03:56:10;96995.56;;;-0.87;96.75
76054;BME280;64752;48.870;9.082;2022-12-10T03:58:36;97003.13;;;-0.76;96.96
76054;BME280;64752;48.870;9.082;2022-12-10T04:01:03;97009.88;;;-0.70;97.01
76054;BME280;64752;48.870;9.082;2022-12-10T04:03:34;97011.56;;;-0.68;96.87
76054;BME280;64752;48.870;9.082;2022-12-10T04:06:02;97016.63;;;-0.65;96.73
76054;BME280;64752;48.870;9.082;2022-12-10T04:08:27;97012.41;;;-0.64;96.75
76054;BME280;64752;48.870;9.082;2022-12-10T04:10:53;97006.47;;;-0.68;96.72
76054;BME280;64752;48.870;9.082;2022-12-10T04:13:18;97012.41;;;-0.66;96.60
76054;BME280;64752;48.870;9.082;2022-12-10T04:16:02;97016.59;;;-0.59;96.67
76054;BME280;64752;48.870;9.082;2022-12-10T04:18:46;97015.69;;;-0.51;96.55
76054;BME280;64752;48.870;9.082;2022-12-10T04:21:11;97012.34;;;-0.58;96.56
76054;BME280;64752;48.870;9.082;2022-12-10T04:23:55;97015.72;;;-0.54;96.43
76054;BME280;64752;48.870;9.082;2022-12-10T04:26:39;97017.38;;;-0.53;96.35
76054;BME280;64752;48.870;9.082;2022-12-10T04:29:22;97016.47;;;-0.46;96.18
76054;BME280;64752;48.870;9.082;2022-12-10T04:31:48;97008.91;;;-0.51;96.18
76054;BME280;64752;48.870;9.082;2022-12-10T04:34:13;97015.66;;;-0.47;95.88
76054;BME280;64752;48.870;9.082;2022-12-10T04:36:38;97017.38;;;-0.50;95.67
76054;BME280;64752;48.870;9.082;2022-12-10T04:39:04;97022.44;;;-0.47;95.44
76054;BME280;64752;48.870;9.082;2022-12-10T04:41:30;97027.56;;;-0.52;95.64
76054;BME280;64752;48.870;9.082;2022-12-10T04:43:55;97026.66;;;-0.43;95.40
76054;BME280;64752;48.870;9.082;2022-12-10T04:46:20;97029.22;;;-0.45;95.14
76054;BME280;64752;48.870;9.082;2022-12-10T04:48:49;97030.91;;;-0.45;95.44
76054;BME280;64752;48.870;9.082;2022-12-10T04:51:14;97032.59;;;-0.44;95.53
76054;BME280;64752;48.870;9.082;2022-12-10T04:53:40;97032.63;;;-0.47;95.68
76054;BME280;64752;48.870;9.082;2022-12-10T04:56:06;97044.50;;;-0.45;95.64
76054;BME280;64752;48.870;9.082;2022-12-10T04:58:32;97042.78;;;-0.44;95.57
76054;BME280;64752;48.870;9.082;2022-12-10T05:01:06;97038.50;;;-0.39;95.45
76054;BME280;64752;48.870;9.082;2022-12-10T05:03:32;97030.09;;;-0.47;95.40
76054;BME280;64752;48.870;9.082;2022-12-10T05:06:04;97030.03;;;-0.40;95.04
76054;BME280;64752;48.870;9.082;2022-12-10T05:08:30;97021.50;;;-0.37;95.10
76054;BME280;64752;48.870;9.082;2022-12-10T05:11:01;97025.75;;;-0.37;94.94
76054;BME280;64752;48.870;9.082;2022-12-10T05:13:27;97021.50;;;-0.37;94.54
76054;BME280;64752;48.870;9.082;2022-12-10T05:15:52;97026.63;;;-0.38;94.86
76054;BME280;64752;48.870;9.082;2022-12-10T05:18:18;97016.47;;;-0.40;95.08
76054;BME280;64752;48.870;9.082;2022-12-10T05:20:43;97023.16;;;-0.30;94.73
76054;BME280;64752;48.870;9.082;2022-12-10T05:23:08;97026.56;;;-0.31;94.17
76054;BME280;64752;48.870;9.082;2022-12-10T05:26:06;97026.63;;;-0.38;94.40
76054;BME280;64752;48.870;9.082;2022-12-10T05:28:35;97030.91;;;-0.44;94.47
76054;BME280;64752;48.870;9.082;2022-12-10T05:31:01;97029.97;;;-0.32;94.19
76054;BME280;64752;48.870;9.082;2022-12-10T05:33:27;97033.47;;;-0.44;94.28
76054;BME280;64752;48.870;9.082;2022-12-10T05:36:01;97036.84;;;-0.46;94.69
76054;BME280;64752;48.870;9.082;2022-12-10T05:38:29;97026.56;;;-0.29;94.41
76054;BME280;64752;48.870;9.082;2022-12-10T05:40:54;97045.31;;;-0.38;94.47
76054;BME280;64752;48.870;9.082;2022-12-10T05:43:20;97045.31;;;-0.43;94.74
76054;BME280;64752;48.870;9.082;2022-12-10T05:45:46;97046.16;;;-0.39;94.60
76054;BME280;64752;48.870;9.082;2022-12-10T05:48:14;97047.03;;;-0.40;94.73
76054;BME280;64752;48.870;9.082;2022-12-10T05:50:39;97042.69;;;-0.29;94.00
76054;BME280;64752;48.870;9.082;2022-12-10T05:53:05;97036.72;;;-0.28;94.76
76054;BME280;64752;48.870;9.082;2022-12-10T05:55:30;97047.78;;;-0.32;94.84
76054;BME280;64752;48.870;9.082;2022-12-10T05:58:01;97046.13;;;-0.34;94.39
76054;BME280;64752;48.870;9.082;2022-12-10T06:00:27;97037.63;;;-0.33;93.96
76054;BME280;64752;48.870;9.082;2022-12-10T06:02:53;97040.22;;;-0.38;94.19
76054;BME280;64752;48.870;9.082;2022-12-10T06:05:19;97049.44;;;-0.28;93.73
76054;BME280;64752;48.870;9.082;2022-12-10T06:07:44;97046.16;;;-0.39;93.79
76054;BME280;64752;48.870;9.082;2022-12-10T06:10:10;97056.31;;;-0.36;93.88
76054;BME280;64752;48.870;9.082;2022-12-10T06:12:36;97059.75;;;-0.38;93.94
76054;BME280;64752;48.870;9.082;2022-12-10T06:15:03;97073.28;;;-0.33;94.08
76054;BME280;64752;48.870;9.082;2022-12-10T06:17:28;97071.59;;;-0.34;93.81
76054;BME280;64752;48.870;9.082;2022-12-10T06:19:54;97065.63;;;-0.32;93.96
76054;BME280;64752;48.870;9.082;2022-12-10T06:22:19;97064.78;;;-0.35;93.80
76054;BME280;64752;48.870;9.082;2022-12-10T06:24:45;97063.94;;;-0.33;93.59
76054;BME280;64752;48.870;9.082;2022-12-10T06:27:10;97063.97;;;-0.39;94.19
76054;BME280;64752;48.870;9.082;2022-12-10T06:29:35;97067.31;;;-0.29;94.10
76054;BME280;64752;48.870;9.082;2022-12-10T06:32:01;97068.22;;;-0.38;94.33
76054;BME280;64752;48.870;9.082;2022-12-10T06:34:26;97075.84;;;-0.36;94.18
76054;BME280;64752;48.870;9.082;2022-12-10T06:36:51;97070.78;;;-0.41;94.28
76054;BME280;64752;48.870;9.082;2022-12-10T06:39:17;97081.81;;;-0.41;94.33
76054;BME280;64752;48.870;9.082;2022-12-10T06:41:42;97087.66;;;-0.28;94.49
76054;BME280;64752;48.870;9.082;2022-12-10T06:44:09;97088.53;;;-0.30;93.51
76054;BME280;64752;48.870;9.082;2022-12-10T06:46:35;97086.84;;;-0.31;93.80
76054;BME280;64752;48.870;9.082;2022-12-10T06:49:01;97088.59;;;-0.35;93.99
76054;BME280;64752;48.870;9.082;2022-12-10T06:51:26;97089.41;;;-0.34;94.18
76054;BME280;64752;48.870;9.082;2022-12-10T06:53:52;97093.69;;;-0.43;94.04
76054;BME280;64752;48.870;9.082;2022-12-10T06:56:18;97097.94;;;-0.38;94.24
76054;BME280;64752;48.870;9.082;2022-12-10T06:58:44;97098.78;;;-0.40;94.36
76054;BME280;64752;48.870;9.082;2022-12-10T07:01:21;97097.03;;;-0.31;94.30
76054;BME280;64752;48.870;9.082;2022-12-10T07:03:51;97097.84;;;-0.25;93.82
76054;BME280;64752;48.870;9.082;2022-12-10T07:06:18;97091.91;;;-0.28;93.28
76054;BME280;64752;48.870;9.082;2022-12-10T07:08:43;97098.72;;;-0.32;93.62
76054;BME280;64752;48.870;9.082;2022-12-10T07:11:12;97092.81;;;-0.34;93.87
76054;BME280;64752;48.870;9.082;2022-12-10T07:13:38;97094.38;;;-0.17;94.63
76054;BME280;64752;48.870;9.082;2022-12-10T07:16:12;97088.47;;;-0.24;94.45
76054;BME280;64752;48.870;9.082;2022-12-10T07:18:38;97099.53;;;-0.25;93.99
76054;BME280;64752;48.870;9.082;2022-12-10T07:21:31;97103.81;;;-0.30;93.71
76054;BME280;64752;48.870;9.082;2022-12-10T07:24:00;97104.66;;;-0.31;94.50
76054;BME280;64752;48.870;9.082;2022-12-10T07:26:28;97106.38;;;-0.29;94.19
76054;BME280;64752;48.870;9.082;2022-12-10T07:28:54;97113.16;;;-0.31;94.00
76054;BME280;64752;48.870;9.082;2022-12-10T07:31:21;97118.16;;;-0.18;93.67
76054;BME280;64752;48.870;9.082;2022-12-10T07:33:47;97126.72;;;-0.26;93.93
76054;BME280;64752;48.870;9.082;2022-12-10T07:36:12;97123.31;;;-0.26;93.81
76054;BME280;64752;48.870;9.082;2022-12-10T07:38:39;97129.22;;;-0.20;94.00
76054;BME280;64752;48.870;9.082;2022-12-10T07:41:07;97134.25;;;-0.10;93.67
76054;BME280;64752;48.870;9.082;2022-12-10T07:43:37;97129.22;;;-0.16;93.55
76054;BME280;64752;48.870;9.082;2022-12-10T07:48:38;97125.78;;;-0.11;93.63
76054;BME280;64752;48.870;9.082;2022-12-10T07:51:04;97137.63;;;-0.10;93.24
76054;BME280;64752;48.870;9.082;2022-12-10T07:53:30;97142.72;;;-0.07;93.05
76054;BME280;64752;48.870;9.082;2022-12-10T07:55:55;97144.41;;;-0.04;92.93
76054;BME280;64752;48.870;9.082;2022-12-10T07:58:21;97142.72;;;-0.04;92.79
76054;BME280;64752;48.870;9.082;2022-12-10T08:00:46;97148.66;;;-0.02;92.79
76054;BME280;64752;48.870;9.082;2022-12-10T08:03:12;97156.19;;;0.11;92.35
76054;BME280;64752;48.870;9.082;2022-12-10T08:05:37;97151.97;;;0.07;92.67
76054;BME280;64752;48.870;9.082;2022-12-10T08:08:03;97154.34;;;0.30;92.57
76054;BME280;64752;48.870;9.082;2022-12-10T08:10:29;97162.91;;;0.24;91.83
76054;BME280;64752;48.870;9.082;2022-12-10T08:12:58;97159.47;;;0.24;91.89
76054;BME280;64752;48.870;9.082;2022-12-10T08:15:23;97163.66;;;0.32;91.51
76054;BME280;64752;48.870;9.082;2022-12-10T08:17:49;97161.16;;;0.28;91.07
76054;BME280;64752;48.870;9.082;2022-12-10T08:20:15;97163.66;;;0.31;91.17
76054;BME280;64752;48.870;9.082;2022-12-10T08:22:43;97156.84;;;0.33;92.03
76054;BME280;64752;48.870;9.082;2022-12-10T08:25:12;97161.13;;;0.32;90.97
76054;BME280;64752;48.870;9.082;2022-12-10T08:27:41;97157.63;;;0.44;91.11
76054;BME280;64752;48.870;9.082;2022-12-10T08:30:10;97159.28;;;0.48;90.47
76054;BME280;64752;48.870;9.082;2022-12-10T08:32:36;97155.00;;;0.50;90.66
76054;BME280;64752;48.870;9.082;2022-12-10T08:35:01;97156.69;;;0.54;90.55
76054;BME280;64752;48.870;9.082;2022-12-10T08:37:26;97165.22;;;0.49;90.18
76054;BME280;64752;48.870;9.082;2022-12-10T08:39:52;97152.41;;;0.55;90.01
76054;BME280;64752;48.870;9.082;2022-12-10T08:42:17;97148.03;;;0.68;90.56
76054;BME280;64752;48.870;9.082;2022-12-10T08:44:43;97150.59;;;0.68;89.71
76054;BME280;64752;48.870;9.082;2022-12-10T08:47:08;97147.13;;;0.73;88.86
76054;BME280;64752;48.870;9.082;2022-12-10T08:49:37;97151.63;;;0.48;89.86
76054;BME280;64752;48.870;9.082;2022-12-10T08:52:02;97152.47;;;0.50;89.71
76054;BME280;64752;48.870;9.082;2022-12-10T08:54:28;97161.69;;;0.62;89.66
76054;BME280;64752;48.870;9.082;2022-12-10T08:56:53;97172.50;;;0.89;89.00
76054;BME280;64752;48.870;9.082;2022-12-10T08:59:19;97172.44;;;0.93;88.02
76054;BME280;64752;48.870;9.082;2022-12-10T09:01:44;97182.66;;;0.92;88.11
76054;BME280;64752;48.870;9.082;2022-12-10T09:04:10;97180.00;;;1.03;87.86
76054;BME280;64752;48.870;9.082;2022-12-10T09:06:35;97185.91;;;1.09;86.88
76054;BME280;64752;48.870;9.082;2022-12-10T09:09:01;97176.59;;;1.04;86.56
76054;BME280;64752;48.870;9.082;2022-12-10T09:11:30;97183.22;;;1.20;86.17
76054;BME280;64752;48.870;9.082;2022-12-10T09:13:56;97185.06;;;1.07;87.04
76054;BME280;64752;48.870;9.082;2022-12-10T09:16:29;97184.38;;;0.93;87.15
76054;BME280;64752;48.870;9.082;2022-12-10T09:18:54;97182.66;;;0.92;87.32
76054;BME280;64752;48.870;9.082;2022-12-10T09:21:20;97185.19;;;0.95;88.12
76054;BME280;64752;48.870;9.082;2022-12-10T09:23:45;97185.00;;;1.13;87.09
76054;BME280;64752;48.870;9.082;2022-12-10T09:26:14;97193.13;;;1.46;85.13
76054;BME280;64752;48.870;9.082;2022-12-10T09:28:40;97196.53;;;1.47;84.95
76054;BME280;64752;48.870;9.082;2022-12-10T09:31:09;97192.50;;;1.29;86.38
76054;BME280;64752;48.870;9.082;2022-12-10T09:33:36;97206.59;;;1.59;85.22
76054;BME280;64752;48.870;9.082;2022-12-10T09:36:03;97208.06;;;1.80;84.42
76054;BME280;64752;48.870;9.082;2022-12-10T09:38:30;97215.28;;;1.46;84.40
76054;BME280;64752;48.870;9.082;2022-12-10T09:41:04;97216.81;;;1.61;84.52
76054;BME280;64752;48.870;9.082;2022-12-10T09:46:46;97209.59;;;1.24;85.66
76054;BME280;64752;48.870;9.082;2022-12-10T09:49:23;97209.47;;;1.33;85.04
76054;BME280;64752;48.870;9.082;2022-12-10T09:51:55;97201.59;;;1.50;84.96
76054;BME280;64752;48.870;9.082;2022-12-10T09:54:35;97202.19;;;1.72;83.83
76054;BME280;64752;48.870;9.082;2022-12-10T09:57:05;97213.31;;;1.69;84.13
76054;BME280;64752;48.870;9.082;2022-12-10T10:02:41;97207.38;;;1.67;83.40
76054;BME280;64752;48.870;9.082;2022-12-10T10:04:49;97213.81;;;1.95;82.41
76054;BME280;64752;48.870;9.082;2022-12-10T10:07:23;97219.13;;;1.79;82.82
76054;BME280;64752;48.870;9.082;2022-12-10T10:09:51;97209.50;;;1.97;82.39
76054;BME280;64752;48.870;9.082;2022-12-10T10:12:20;97216.41;;;1.91;82.67
76054;BME280;64752;48.870;9.082;2022-12-10T10:14:45;97214.94;;;1.73;83.01
76054;BME280;64752;48.870;9.082;2022-12-10T10:17:17;97206.97;;;1.97;81.82
76054;BME280;64752;48.870;9.082;2022-12-10T10:19:45;97210.13;;;2.14;80.62
76054;BME280;64752;48.870;9.082;2022-12-10T10:22:11;97206.81;;;2.07;81.49
76054;BME280;64752;48.870;9.082;2022-12-10T10:24:40;97209.72;;;2.42;79.88
76054;BME280;64752;48.870;9.082;2022-12-10T10:27:15;97210.41;;;1.94;80.26
76054;BME280;64752;48.870;9.082;2022-12-10T10:29:45;97201.09;;;1.90;80.77
76054;BME280;64752;48.870;9.082;2022-12-10T10:32:14;97200.03;;;2.06;80.97
76054;BME280;64752;48.870;9.082;2022-12-10T10:34:42;97201.06;;;1.93;81.26
76054;BME280;64752;48.870;9.082;2022-12-10T10:37:16;97199.16;;;2.06;79.93
76054;BME280;64752;48.870;9.082;2022-12-10T10:39:48;97200.31;;;2.44;79.56
76054;BME280;64752;48.870;9.082;2022-12-10T10:48:03;97198.44;;;2.54;78.15
76054;BME280;64752;48.870;9.082;2022-12-10T10:50:29;97202.03;;;2.42;78.60
76054;BME280;64752;48.870;9.082;2022-12-10T10:52:54;97199.16;;;2.62;77.96
76054;BME280;64752;48.870;9.082;2022-12-10T10:55:33;97203.97;;;2.26;78.52
76054;BME280;64752;48.870;9.082;2022-12-10T10:58:00;97205.16;;;2.05;79.33
76054;BME280;64752;48.870;9.082;2022-12-10T11:00:26;97216.16;;;2.10;81.96
76054;BME280;64752;48.870;9.082;2022-12-10T11:02:52;97205.91;;;2.11;80.64
76054;BME280;64752;48.870;9.082;2022-12-10T11:05:29;97203.25;;;2.18;78.86
76054;BME280;64752;48.870;9.082;2022-12-10T11:08:06;97212.16;;;2.48;78.02
76054;BME280;64752;48.870;9.082;2022-12-10T11:10:49;97210.31;;;2.59;77.40
76054;BME280;64752;48.870;9.082;2022-12-10T11:13:25;97205.25;;;3.04;76.65
76054;BME280;64752;48.870;9.082;2022-12-10T11:18:53;97207.84;;;3.48;73.95
76054;BME280;64752;48.870;9.082;2022-12-10T11:21:22;97211.78;;;3.66;75.21
76054;BME280;64752;48.870;9.082;2022-12-10T11:23:55;97211.63;;;3.72;74.18
76054;BME280;64752;48.870;9.082;2022-12-10T11:30:14;97228.84;;;3.22;75.83
76054;BME280;64752;48.870;9.082;2022-12-10T11:32:29;97216.91;;;3.21;76.20
76054;BME280;64752;48.870;9.082;2022-12-10T11:38:09;97218.81;;;3.55;75.71
76054;BME280;64752;48.870;9.082;2022-12-10T11:51:45;97214.00;;;3.39;75.17
76054;BME280;64752;48.870;9.082;2022-12-10T12:00:24;97220.44;;;3.14;75.17
76054;BME280;64752;48.870;9.082;2022-12-10T12:13:57;97216.47;;;2.97;78.11
76054;BME280;64752;48.870;9.082;2022-12-10T12:16:45;97223.44;;;3.36;76.66
76054;BME280;64752;48.870;9.082;2022-12-10T12:19:18;97222.06;;;3.19;78.14
76054;BME280;64752;48.870;9.082;2022-12-10T12:21:47;97229.22;;;3.00;80.10
76054;BME280;64752;48.870;9.082;2022-12-10T12:24:21;97222.19;;;3.13;78.54
76054;BME280;64752;48.870;9.082;2022-12-10T12:26:51;97231.28;;;3.30;78.21
76054;BME280;64752;48.870;9.082;2022-12-10T12:29:26;97239.91;;;3.24;77.48
76054;BME280;64752;48.870;9.082;2022-12-10T12:32:01;97235.56;;;3.29;77.90
76054;BME280;64752;48.870;9.082;2022-12-10T12:34:37;97236.78;;;3.06;78.22
76054;BME280;64752;48.870;9.082;2022-12-10T12:37:11;97243.00;;;2.93;79.41
76054;BME280;64752;48.870;9.082;2022-12-10T12:39:50;97243.47;;;3.15;78.83
76054;BME280;64752;48.870;9.082;2022-12-10T12:42:49;97240.63;;;3.31;77.91
76054;BME280;64752;48.870;9.082;2022-12-10T12:45:28;97234.31;;;3.03;78.34
76054;BME280;64752;48.870;9.082;2022-12-10T12:50:53;97243.13;;;2.87;79.11
76054;BME280;64752;48.870;9.082;2022-12-10T12:53:22;97256.19;;;2.70;79.70
76054;BME280;64752;48.870;9.082;2022-12-10T12:55:56;97251.16;;;2.65;78.83
76054;BME280;64752;48.870;9.082;2022-12-10T13:01:03;97261.44;;;2.02;82.05
76054;BME280;64752;48.870;9.082;2022-12-10T13:03:36;97267.22;;;2.16;81.54
76054;BME280;64752;48.870;9.082;2022-12-10T13:06:24;97260.44;;;2.14;80.99
76054;BME280;64752;48.870;9.082;2022-12-10T13:11:43;97273.41;;;1.98;81.50
76054;BME280;64752;48.870;9.082;2022-12-10T13:22:00;97282.34;;;1.65;83.82
76054;BME280;64752;48.870;9.082;2022-12-10T13:27:29;97281.50;;;1.63;84.44
76054;BME280;64752;48.870;9.082;2022-12-10T13:30:03;97286.81;;;1.47;83.86
76054;BME280;64752;48.870;9.082;2022-12-10T13:40:24;97292.78;;;1.45;83.69
76054;BME280;64752;48.870;9.082;2022-12-10T13:48:56;97302.34;;;1.26;84.88
76054;BME280;64752;48.870;9.082;2022-12-10T13:51:34;97314.94;;;1.44;84.70
76054;BME280;64752;48.870;9.082;2022-12-10T14:00:14;97325.97;;;1.48;83.59
76054;BME280;64752;48.870;9.082;2022-12-10T14:05:54;97330.13;;;1.57;83.65
76054;BME280;64752;48.870;9.082;2022-12-10T14:08:31;97342.09;;;1.54;83.22
76054;BME280;64752;48.870;9.082;2022-12-10T14:10:59;97343.81;;;1.51;83.83
76054;BME280;64752;48.870;9.082;2022-12-10T14:13:39;97348.00;;;1.58;82.99
76054;BME280;64752;48.870;9.082;2022-12-10T14:16:10;97347.38;;;1.36;83.84
76054;BME280;64752;48.870;9.082;2022-12-10T14:18:37;97351.63;;;1.34;83.75
76054;BME280;64752;48.870;9.082;2022-12-10T14:21:05;97348.22;;;1.37;83.57
76054;BME280;64752;48.870;9.082;2022-12-10T14:23:34;97355.88;;;1.35;85.46
76054;BME280;64752;48.870;9.082;2022-12-10T14:26:16;97360.94;;;1.40;83.97
76054;BME280;64752;48.870;9.082;2022-12-10T14:28:46;97360.16;;;1.34;84.10
76054;BME280;64752;48.870;9.082;2022-12-10T14:31:17;97363.72;;;1.12;85.45
76054;BME280;64752;48.870;9.082;2022-12-10T14:33:44;97358.59;;;1.17;84.93
76054;BME280;64752;48.870;9.082;2022-12-10T14:36:26;97362.81;;;1.19;84.21
76054;BME280;64752;48.870;9.082;2022-12-10T14:38:52;97364.59;;;1.11;85.05
76054;BME280;64752;48.870;9.082;2022-12-10T14:41:20;97373.16;;;1.04;85.71
76054;BME280;64752;48.870;9.082;2022-12-10T14:43:47;97368.94;;;1.00;85.44
76054;BME280;64752;48.870;9.082;2022-12-10T14:46:17;97375.78;;;0.93;85.54
76054;BME280;64752;48.870;9.082;2022-12-10T14:48:45;97374.97;;;0.91;85.63
76054;BME280;64752;48.870;9.082;2022-12-10T14:51:14;97384.28;;;0.93;86.60
76054;BME280;64752;48.870;9.082;2022-12-10T14:53:40;97383.53;;;0.81;85.94
76054;BME280;64752;48.870;9.082;2022-12-10T14:56:07;97387.84;;;0.68;86.76
76054;BME280;64752;48.870;9.082;2022-12-10T15:00:59;97393.81;;;0.68;86.42
76054;BME280;64752;48.870;9.082;2022-12-10T15:03:27;97400.69;;;0.57;87.29
76054;BME280;64752;48.870;9.082;2022-12-10T15:05:56;97397.25;;;0.58;87.04
76054;BME280;64752;48.870;9.082;2022-12-10T15:08:24;97404.97;;;0.53;87.28
76054;BME280;64752;48.870;9.082;2022-12-10T15:10:54;97400.75;;;0.40;87.54
76054;BME280;64752;48.870;9.082;2022-12-10T15:13:29;97394.81;;;0.36;87.36
76054;BME280;64752;48.870;9.082;2022-12-10T15:15:57;97399.06;;;0.39;86.89
76054;BME280;64752;48.870;9.082;2022-12-10T15:18:36;97408.44;;;0.34;87.19
76054;BME280;64752;48.870;9.082;2022-12-10T15:21:11;97405.06;;;0.32;86.88